Aktualne dane pomiarowe

Uwaga, wersja testowa! Automatyczne pobieranie danych za pomocą narzędzi lub skryptów to umożliwiających jest zabronione.

Dane meteo z obszaru Polski uzyskane na podstawie depesz SYNOP pobieranych co godzinę z NWS. Najedź myszką na symbol przedstawiony w tabeli, aby uzyskać informacje co do jego znaczenia. Prosimy pamiętać, że to testowa wersja strony, która jeszcze nie jest ukończona. Stworzono również jest krótki FAQ dotyczący korzystania z tej podstrony Anomalie temperatury w chwili obecnej odniesione są do okresu referencyjnego 1951-2016. Okres ten będzie później zmieniony na 1981-2010. Kliknij ikonę aby pobrać plik CSV. Kliknij ikonę aby wygenerować mapę synoptyczną dla danego terminu.

Wybierz Datę:    

        

Bielsko-Biała (12600)

Dane terminowe dla wybranej stacji. Kliknij datę, aby otrzymać dane z tego terminu dla wszystkich stacji.

TemperaturaZachmurzenieWiatrCiśnienieOpadyPogoda
 Data t td wb tx tn tg rh  Nt Nl Cl Cm Ch ws wd g1 g2 wx mslp ppp ch 24h 12h t ww ww w1 w2  
2019-07-07 23:00:00 13.0 6.6 9.3--- 6530.0wxwxwx2wx--21012.8 965.6 1.6---------
2019-07-07 22:00:00 13.6 8.0 10.2--- 6930.0wxwxwx2wx--21012.5 965.4 1.9---------
2019-07-07 21:00:00 14.0 8.8 10.8--- 7130.0wxwxwx2wx--21011.7 964.7 1.5---------
2019-07-07 20:00:00 12.6 8.5 10.0--- 7630.0wxwxwxwx2wx--21011.2 964.0 1.0---------
2019-07-07 19:00:00 13.0 8.5 10.2--- 7430.0wxwxwxwx1wx---1010.6 963.5 0.6---------
2019-07-07 18:00:00 16.6 9.3 12.2 22.4 15.1- 6230.0wxwxwxwxwx2wx---1009.7 963.2 0.3---wx-w1--
2019-07-07 17:00:00 16.6 11.1 13.1--- 7020.0wxwxwxwx3wx---1009.5 963.0 -0.1---------
2019-07-07 16:00:00 15.6 11.0 12.6--- 7420.0wxwxwxwx3wx---1009.5 962.9 0.0---------
2019-07-07 15:00:00 15.4 11.2 12.7--- 7620.0wxwxwxwx2wx--21009.6 962.9 0.3---wx---
2019-07-07 14:00:00 16.7 11.8 13.5--- 7320.0wxwxwx4wx--41009.6 963.1 1.0---wx---
2019-07-07 13:00:00 17.4 12.5 14.2--- 7320.0wxwxwx3wx---1009.2 962.9 1.1---------
2019-07-07 12:00:00 17.7 12.8 14.5--- 7330.0wxwxwxwx4wx--41008.9 962.6 1.4- 0.06------
2019-07-07 11:00:00 20.5 13.2 15.8--- 6330.0wxwxwxwx3wx---1007.9 962.1 1.4---------
2019-07-07 10:00:00 20.5 12.5 15.5--- 6030.0wxwxwxwx4wx--41007.6 961.8 1.3---------
2019-07-07 09:00:00 22.2 11.9 15.9--- 5230.0wxwxwxwx4wx--41006.7 961.2 0.2---------
2019-07-07 08:00:00 21.0 11.6 15.2--- 5540.0wx-wxwx3wx--31006.3 960.7 -0.1---------
2019-07-07 07:00:00 19.9 11.6 14.8--- 5940.0wx-wxwx1wx--11006.3 960.5 -0.2---------
2019-07-07 06:00:00 18.9 11.5 14.3 26.2 14.3 12 6240.0wx-wxwx2wx--21007.0 961.0 0.6- 0.012----- 12.8
2019-07-07 05:00:00 17.9 10.5 13.4--- 6240.0wx-wxwx2wx--21007.0 960.8 -0.1---------
2019-07-07 04:00:00 15.7 10.7 12.5--- 7240.0wx-wx1wx--11007.2 960.7 -0.4---------
2019-07-07 03:00:00 14.5 9.1 11.2--- 7050.0wx-wxwx2wx--21007.1 960.4 -0.4---------
2019-07-07 02:00:00 15.8 9.5 11.9--- 6650.0wx-wx3wx--31007.4 960.9 0.6---------
2019-07-07 01:00:00 19.2 9.9 13.6--- 5550.0wx-wx2wx---1007.1 961.1 1.6---------
2019-07-07 00:00:00 20.9 9.2 14.1--- 4750.0wx-wx3wx--31006.5 960.8 1.3- 0.06------
2019-07-06 23:00:00 22.2 8.7 14.4--- 4220.0wx-wxwx4wx--41005.7 960.3 0.4---------
2019-07-06 22:00:00 23.9 7.9 14.8--- 3630.0wx-wx3wx--31004.6 959.5 -0.9---------
2019-07-06 21:00:00 23.8 8.2 14.9--- 3730.0wx-wxwx3wx--31004.7 959.5 -1.4---------
2019-07-06 20:00:00 23.5 9.1 15.2--- 4030.0wxwxwxwx3wx--31005.1 959.9 -1.5---------
2019-07-06 19:00:00 22.6 9.7 15.0--- 4430.0wx-wxwx2wx--21005.8 960.4 -1.4---------
2019-07-06 18:00:00 26.2 10.8 17.0 27.7 20.0- 3830.0wxwxwxwx2wx-1221005.7 960.9 -1.6- 0.012------
2019-07-06 17:00:00 27.2 8.1 16.3--- 3050.0wxwxwxwxwx5wx-1151006.1 961.4 -1.2---------
2019-07-06 16:00:00 26.9 8.3 16.2--- 3150.0wxwxwxwxwx6wx--61006.6 961.8 -1.4---------
2019-07-06 15:00:00 26.2 7.2 15.5--- 3050.0wxwxwxwxwx6wx121261007.4 962.5 -1.1---------
2019-07-06 14:00:00 27.5 7.9 16.3--- 2950.0wxwxwxwxwx6wx-1261007.3 962.6 -1.5---------
2019-07-06 13:00:00 26.9 7.4 15.8--- 2950.0wxwxwxwxwx8wx-1281008.0 963.2 -1.5---------
2019-07-06 12:00:00 26.3 6.8 15.4--- 2950.0wxwxwxwx7wx131371008.6 963.6 -1.7- 0.06------
2019-07-06 11:00:00 25.5 6.6 15.0--- 3050.0wxwxwxwx7wx-1271009.2 964.1 -1.6---------
2019-07-06 10:00:00 25.3 8.3 15.6--- 3440.0wxwxwxwx5wx--51009.9 964.7 -1.3---------
2019-07-06 09:00:00 23.6 8.1 14.8--- 3750.0wxwxwxwxwx5wx--51010.8 965.3 -1.0---------
2019-07-06 08:00:00 23.0 8.3 14.6--- 3950.0wxwxwxwxwx5wx--51011.3 965.7 -0.9---------
2019-07-06 07:00:00 21.8 8.7 14.3--- 4350.0wx-wxwx3wx--31011.8 966.0 -0.8---------
2019-07-06 06:00:00 20.0 10.4 14.2 20.0 14.0 14 5440.0wx-wxwx1wx--11012.4 966.3 -0.6- 0.012----- 5.5
2019-07-06 05:00:00 17.7 10.3 13.2--- 6250.0wx-wxwx1wx--11013.1 966.6 -0.4---------
2019-07-06 04:00:00 14.0 10.0 11.4--- 7750.0wx-wx1wx--11013.9 966.8 -0.6---------
2019-07-06 03:00:00 15.2 10.2 12.0--- 7250.0wxwxwxwx1wx---1013.8 966.9 -0.8---------
2019-07-06 02:00:00 15.4 10.2 12.1--- 7150.0wxwxwxwx1wx--11013.9 967.0 -0.6---------
2019-07-06 01:00:00 16.1 9.3 12.0--- 6450.0wxwxwxwx2wx--21014.2 967.4 -0.2---------
2019-07-06 00:00:00 16.1 9.3 12.0--- 6450.0wxwxwxwx2wx--21014.5 967.7 -0.1- 0.06------
1.7 ms

 

Print Friendly, PDF & Email